Terminal Aerodrome Forecast
Issued by NWS Quad Cities IA IL

Home | Current Version | Previous Version | Text Only | Print | Product List | Glossary On
Versions: 1 2 3 4 5 6 7 8 9 10 11 12 13 14 15 16 17 18 19 20 21 22 23 24
000
FTUS43 KDVN 281800 AAA
TAFMLI
TAF AMD
KMLI 281809Z 2818/2918 10007KT P6SM VCSH BKN040
      TEMPO 2818/2822 3SM TSRA BR OVC030CB
     FM282200 12005KT P6SM BKN040
     FM290400 12005KT 5SM BR BKN050
     FM291500 16007KT P6SM BKN100=

USA.gov is the U.S. government's official web portal to all federal, state and local government web resources and services.